sensor_id;sensor_type;location;lat;lon;timestamp;pressure;altitude;pressure_sealevel;temperature;humidity
35307;BME280;21420;52.196;21.416;2023-01-26T00:01:25;101161.12;;;0.12;76.16
35307;BME280;21420;52.196;21.416;2023-01-26T00:03:56;101159.20;;;0.14;76.34
35307;BME280;21420;52.196;21.416;2023-01-26T00:06:24;101158.24;;;0.22;76.59
35307;BME280;21420;52.196;21.416;2023-01-26T00:08:53;101161.23;;;0.31;76.63
35307;BME280;21420;52.196;21.416;2023-01-26T00:11:22;101158.86;;;0.39;76.75
35307;BME280;21420;52.196;21.416;2023-01-26T00:13:50;101155.77;;;0.46;76.82
35307;BME280;21420;52.196;21.416;2023-01-26T00:16:18;101154.60;;;0.51;76.74
35307;BME280;21420;52.196;21.416;2023-01-26T00:18:45;101149.01;;;0.56;76.73
35307;BME280;21420;52.196;21.416;2023-01-26T00:21:17;101148.21;;;0.58;76.81
35307;BME280;21420;52.196;21.416;2023-01-26T00:23:46;101148.26;;;0.61;76.88
35307;BME280;21420;52.196;21.416;2023-01-26T00:26:15;101142.65;;;0.57;76.62
35307;BME280;21420;52.196;21.416;2023-01-26T00:28:43;101140.44;;;0.49;76.49
35307;BME280;21420;52.196;21.416;2023-01-26T00:31:20;101142.21;;;0.40;76.35
35307;BME280;21420;52.196;21.416;2023-01-26T00:33:48;101141.67;;;0.39;76.45
35307;BME280;21420;52.196;21.416;2023-01-26T00:36:15;101143.19;;;0.39;76.38
35307;BME280;21420;52.196;21.416;2023-01-26T00:38:42;101140.63;;;0.37;76.33
35307;BME280;21420;52.196;21.416;2023-01-26T00:41:09;101139.08;;;0.38;76.39
35307;BME280;21420;52.196;21.416;2023-01-26T00:43:59;101130.86;;;0.33;76.28
35307;BME280;21420;52.196;21.416;2023-01-26T00:46:26;101132.60;;;0.30;76.26
35307;BME280;21420;52.196;21.416;2023-01-26T00:48:53;101131.02;;;0.29;76.29
35307;BME280;21420;52.196;21.416;2023-01-26T00:51:21;101125.67;;;0.29;76.22
35307;BME280;21420;52.196;21.416;2023-01-26T00:53:47;101124.10;;;0.31;76.28
35307;BME280;21420;52.196;21.416;2023-01-26T00:56:15;101122.59;;;0.31;76.33
35307;BME280;21420;52.196;21.416;2023-01-26T00:58:41;101119.13;;;0.30;76.31
35307;BME280;21420;52.196;21.416;2023-01-26T01:01:10;101118.63;;;0.33;76.38
35307;BME280;21420;52.196;21.416;2023-01-26T01:03:41;101116.96;;;0.33;76.44
35307;BME280;21420;52.196;21.416;2023-01-26T01:06:07;101116.08;;;0.31;76.37
35307;BME280;21420;52.196;21.416;2023-01-26T01:08:34;101116.41;;;0.28;76.26
35307;BME280;21420;52.196;21.416;2023-01-26T01:11:07;101110.66;;;0.26;76.23
35307;BME280;21420;52.196;21.416;2023-01-26T01:13:35;101112.08;;;0.23;76.21
35307;BME280;21420;52.196;21.416;2023-01-26T01:16:06;101114.23;;;0.22;76.23
35307;BME280;21420;52.196;21.416;2023-01-26T01:18:35;101116.09;;;0.20;76.27
35307;BME280;21420;52.196;21.416;2023-01-26T01:21:11;101113.39;;;0.19;76.27
35307;BME280;21420;52.196;21.416;2023-01-26T01:23:38;101108.84;;;0.19;76.26
35307;BME280;21420;52.196;21.416;2023-01-26T01:26:05;101101.21;;;0.20;76.33
35307;BME280;21420;52.196;21.416;2023-01-26T01:28:33;101098.61;;;0.18;76.26
35307;BME280;21420;52.196;21.416;2023-01-26T01:31:10;101093.41;;;0.17;76.25
35307;BME280;21420;52.196;21.416;2023-01-26T01:33:38;101091.08;;;0.15;76.22
35307;BME280;21420;52.196;21.416;2023-01-26T01:36:07;101091.96;;;0.13;76.27
35307;BME280;21420;52.196;21.416;2023-01-26T01:38:34;101089.66;;;0.10;76.27
35307;BME280;21420;52.196;21.416;2023-01-26T01:41:02;101090.88;;;0.09;76.35
35307;BME280;21420;52.196;21.416;2023-01-26T01:43:30;101086.38;;;0.07;76.29
35307;BME280;21420;52.196;21.416;2023-01-26T01:46:02;101075.71;;;0.06;76.23
35307;BME280;21420;52.196;21.416;2023-01-26T01:49:01;101070.65;;;0.05;76.28
35307;BME280;21420;52.196;21.416;2023-01-26T01:51:32;101067.85;;;0.06;76.37
35307;BME280;21420;52.196;21.416;2023-01-26T01:54:04;101069.08;;;0.06;76.31
35307;BME280;21420;52.196;21.416;2023-01-26T01:56:34;101069.82;;;0.09;76.42
35307;BME280;21420;52.196;21.416;2023-01-26T01:59:03;101068.61;;;0.08;76.27
35307;BME280;21420;52.196;21.416;2023-01-26T02:01:32;101067.95;;;0.05;76.33
35307;BME280;21420;52.196;21.416;2023-01-26T02:04:03;101063.30;;;0.04;76.29
35307;BME280;21420;52.196;21.416;2023-01-26T02:06:49;101059.75;;;0.05;76.31
35307;BME280;21420;52.196;21.416;2023-01-26T02:09:21;101051.35;;;0.04;76.31
35307;BME280;21420;52.196;21.416;2023-01-26T02:12:12;101047.52;;;0.00;76.25
35307;BME280;21420;52.196;21.416;2023-01-26T02:14:40;101047.91;;;-0.03;76.22
35307;BME280;21420;52.196;21.416;2023-01-26T02:17:08;101045.66;;;-0.03;76.25
35307;BME280;21420;52.196;21.416;2023-01-26T02:22:39;101035.42;;;-0.06;76.27
35307;BME280;21420;52.196;21.416;2023-01-26T02:28:01;101026.77;;;-0.13;76.23
35307;BME280;21420;52.196;21.416;2023-01-26T02:30:28;101026.17;;;-0.13;76.35
35307;BME280;21420;52.196;21.416;2023-01-26T02:32:56;101023.69;;;-0.10;76.36
35307;BME280;21420;52.196;21.416;2023-01-26T02:35:23;101020.09;;;-0.06;76.42
35307;BME280;21420;52.196;21.416;2023-01-26T02:37:50;101022.00;;;0.02;76.61
35307;BME280;21420;52.196;21.416;2023-01-26T02:42:53;101015.30;;;0.13;76.63
35307;BME280;21420;52.196;21.416;2023-01-26T02:45:21;101007.53;;;0.12;76.55
35307;BME280;21420;52.196;21.416;2023-01-26T02:47:49;101006.73;;;0.12;76.60
35307;BME280;21420;52.196;21.416;2023-01-26T02:50:16;101001.89;;;0.11;76.50
35307;BME280;21420;52.196;21.416;2023-01-26T02:52:43;101000.80;;;0.16;76.56
35307;BME280;21420;52.196;21.416;2023-01-26T02:55:15;100999.80;;;0.19;76.62
35307;BME280;21420;52.196;21.416;2023-01-26T02:57:53;100999.40;;;0.20;76.56
35307;BME280;21420;52.196;21.416;2023-01-26T03:02:52;100993.92;;;0.27;76.68
35307;BME280;21420;52.196;21.416;2023-01-26T03:05:19;100992.08;;;0.31;76.77
35307;BME280;21420;52.196;21.416;2023-01-26T03:07:46;100992.42;;;0.32;76.66
35307;BME280;21420;52.196;21.416;2023-01-26T03:10:14;100986.67;;;0.35;76.78
35307;BME280;21420;52.196;21.416;2023-01-26T03:12:44;100981.97;;;0.38;76.80
35307;BME280;21420;52.196;21.416;2023-01-26T03:15:11;100979.89;;;0.38;76.82
35307;BME280;21420;52.196;21.416;2023-01-26T03:18:09;100976.44;;;0.39;76.90
35307;BME280;21420;52.196;21.416;2023-01-26T03:20:57;100975.00;;;0.45;76.82
35307;BME280;21420;52.196;21.416;2023-01-26T03:23:44;100969.79;;;0.52;76.93
35307;BME280;21420;52.196;21.416;2023-01-26T03:26:31;100963.88;;;0.55;76.94
35307;BME280;21420;52.196;21.416;2023-01-26T03:29:17;100962.77;;;0.57;76.94
35307;BME280;21420;52.196;21.416;2023-01-26T03:31:44;100962.36;;;0.60;76.90
35307;BME280;21420;52.196;21.416;2023-01-26T03:34:12;100960.21;;;0.59;76.75
35307;BME280;21420;52.196;21.416;2023-01-26T03:36:39;100960.54;;;0.60;76.75
35307;BME280;21420;52.196;21.416;2023-01-26T03:39:10;100963.05;;;0.64;76.78
35307;BME280;21420;52.196;21.416;2023-01-26T03:41:57;100964.53;;;0.66;76.73
35307;BME280;21420;52.196;21.416;2023-01-26T03:44:43;100961.42;;;0.64;76.75
35307;BME280;21420;52.196;21.416;2023-01-26T03:47:36;100955.56;;;0.66;76.67
35307;BME280;21420;52.196;21.416;2023-01-26T03:50:22;100957.71;;;0.70;76.93
35307;BME280;21420;52.196;21.416;2023-01-26T03:53:22;100955.85;;;0.72;76.89
35307;BME280;21420;52.196;21.416;2023-01-26T03:56:10;100949.85;;;0.76;77.06
35307;BME280;21420;52.196;21.416;2023-01-26T03:58:54;100945.84;;;0.75;76.84
35307;BME280;21420;52.196;21.416;2023-01-26T04:01:24;100941.63;;;0.68;76.58
35307;BME280;21420;52.196;21.416;2023-01-26T04:03:56;100941.77;;;0.60;76.35
35307;BME280;21420;52.196;21.416;2023-01-26T04:06:48;100941.40;;;0.55;76.33
35307;BME280;21420;52.196;21.416;2023-01-26T04:09:37;100936.77;;;0.56;76.55
35307;BME280;21420;52.196;21.416;2023-01-26T04:12:07;100931.52;;;0.59;76.68
35307;BME280;21420;52.196;21.416;2023-01-26T04:14:43;100928.87;;;0.63;76.77
35307;BME280;21420;52.196;21.416;2023-01-26T04:17:30;100926.94;;;0.66;76.89
35307;BME280;21420;52.196;21.416;2023-01-26T04:20:16;100928.49;;;0.64;76.81
35307;BME280;21420;52.196;21.416;2023-01-26T04:23:01;100927.13;;;0.63;76.59
35307;BME280;21420;52.196;21.416;2023-01-26T04:25:29;100925.05;;;0.66;76.82
35307;BME280;21420;52.196;21.416;2023-01-26T04:27:56;100927.50;;;0.68;76.91
35307;BME280;21420;52.196;21.416;2023-01-26T04:30:23;100923.79;;;0.69;76.67
35307;BME280;21420;52.196;21.416;2023-01-26T04:32:50;100927.95;;;0.71;76.67
35307;BME280;21420;52.196;21.416;2023-01-26T04:35:18;100929.42;;;0.72;76.78
35307;BME280;21420;52.196;21.416;2023-01-26T04:37:46;100927.71;;;0.74;76.84
35307;BME280;21420;52.196;21.416;2023-01-26T04:40:13;100925.54;;;0.78;76.91
35307;BME280;21420;52.196;21.416;2023-01-26T04:42:40;100924.15;;;0.80;76.91
35307;BME280;21420;52.196;21.416;2023-01-26T04:45:09;100929.64;;;0.84;77.08
35307;BME280;21420;52.196;21.416;2023-01-26T04:47:37;100937.85;;;0.88;77.08
35307;BME280;21420;52.196;21.416;2023-01-26T04:50:05;100941.39;;;0.91;76.99
35307;BME280;21420;52.196;21.416;2023-01-26T04:52:32;100938.17;;;0.94;77.14
35307;BME280;21420;52.196;21.416;2023-01-26T04:54:58;100931.45;;;0.96;77.16
35307;BME280;21420;52.196;21.416;2023-01-26T04:57:26;100927.52;;;0.96;77.15
35307;BME280;21420;52.196;21.416;2023-01-26T04:59:53;100927.65;;;0.93;77.04
35307;BME280;21420;52.196;21.416;2023-01-26T05:02:20;100924.67;;;0.85;76.74
35307;BME280;21420;52.196;21.416;2023-01-26T05:04:47;100918.14;;;0.78;76.67
35307;BME280;21420;52.196;21.416;2023-01-26T05:07:14;100919.77;;;0.71;76.57
35307;BME280;21420;52.196;21.416;2023-01-26T05:09:42;100913.98;;;0.63;76.42
35307;BME280;21420;52.196;21.416;2023-01-26T05:12:29;100914.81;;;0.58;76.41
35307;BME280;21420;52.196;21.416;2023-01-26T05:15:17;100916.91;;;0.52;76.35
35307;BME280;21420;52.196;21.416;2023-01-26T05:17:57;100918.42;;;0.47;76.33
35307;BME280;21420;52.196;21.416;2023-01-26T05:20:48;100919.25;;;0.42;76.22
35307;BME280;21420;52.196;21.416;2023-01-26T05:23:25;100916.73;;;0.38;76.38
35307;BME280;21420;52.196;21.416;2023-01-26T05:26:10;100918.38;;;0.36;76.39
35307;BME280;21420;52.196;21.416;2023-01-26T05:28:57;100917.11;;;0.33;76.33
35307;BME280;21420;52.196;21.416;2023-01-26T05:31:25;100916.85;;;0.30;76.32
35307;BME280;21420;52.196;21.416;2023-01-26T05:33:52;100913.86;;;0.27;76.43
35307;BME280;21420;52.196;21.416;2023-01-26T05:36:22;100916.42;;;0.25;76.46
35307;BME280;21420;52.196;21.416;2023-01-26T05:38:49;100918.40;;;0.23;76.51
35307;BME280;21420;52.196;21.416;2023-01-26T05:41:19;100918.55;;;0.22;76.55
35307;BME280;21420;52.196;21.416;2023-01-26T05:44:07;100917.42;;;0.22;76.50
35307;BME280;21420;52.196;21.416;2023-01-26T05:46:42;100913.00;;;0.23;76.59
35307;BME280;21420;52.196;21.416;2023-01-26T05:49:09;100913.88;;;0.24;76.57
35307;BME280;21420;52.196;21.416;2023-01-26T05:51:36;100912.80;;;0.23;76.40
35307;BME280;21420;52.196;21.416;2023-01-26T05:54:04;100915.00;;;0.24;76.55
35307;BME280;21420;52.196;21.416;2023-01-26T05:56:31;100912.59;;;0.24;76.56
35307;BME280;21420;52.196;21.416;2023-01-26T05:59:01;100913.23;;;0.23;76.45
35307;BME280;21420;52.196;21.416;2023-01-26T06:01:29;100911.58;;;0.24;76.59
35307;BME280;21420;52.196;21.416;2023-01-26T06:03:58;100915.91;;;0.24;76.56
35307;BME280;21420;52.196;21.416;2023-01-26T06:06:30;100919.23;;;0.21;76.50
35307;BME280;21420;52.196;21.416;2023-01-26T06:09:14;100921.80;;;0.18;76.50
35307;BME280;21420;52.196;21.416;2023-01-26T06:12:19;100925.05;;;0.20;76.50
35307;BME280;21420;52.196;21.416;2023-01-26T06:14:56;100926.70;;;0.22;76.58
35307;BME280;21420;52.196;21.416;2023-01-26T06:17:44;100924.70;;;0.26;76.73
35307;BME280;21420;52.196;21.416;2023-01-26T06:20:13;100924.35;;;0.26;76.65
35307;BME280;21420;52.196;21.416;2023-01-26T06:22:46;100924.08;;;0.24;76.62
35307;BME280;21420;52.196;21.416;2023-01-26T06:25:14;100926.73;;;0.22;76.65
35307;BME280;21420;52.196;21.416;2023-01-26T06:27:41;100927.84;;;0.19;76.60
35307;BME280;21420;52.196;21.416;2023-01-26T06:30:34;100928.86;;;0.18;76.53
35307;BME280;21420;52.196;21.416;2023-01-26T06:33:05;100933.58;;;0.16;76.68
35307;BME280;21420;52.196;21.416;2023-01-26T06:35:36;100930.10;;;0.13;76.63
35307;BME280;21420;52.196;21.416;2023-01-26T06:38:05;100927.19;;;0.14;76.51
35307;BME280;21420;52.196;21.416;2023-01-26T06:40:32;100928.75;;;0.14;76.54
35307;BME280;21420;52.196;21.416;2023-01-26T06:43:00;100931.52;;;0.16;76.60
35307;BME280;21420;52.196;21.416;2023-01-26T06:45:27;100929.80;;;0.15;76.56
35307;BME280;21420;52.196;21.416;2023-01-26T06:47:54;100930.69;;;0.13;76.52
35307;BME280;21420;52.196;21.416;2023-01-26T06:50:25;100928.23;;;0.14;76.58
35307;BME280;21420;52.196;21.416;2023-01-26T06:53:03;100920.69;;;0.15;76.63
35307;BME280;21420;52.196;21.416;2023-01-26T06:55:51;100922.27;;;0.11;76.72
35307;BME280;21420;52.196;21.416;2023-01-26T06:58:33;100922.55;;;0.08;76.61
35307;BME280;21420;52.196;21.416;2023-01-26T07:01:36;100921.41;;;0.07;76.61
35307;BME280;21420;52.196;21.416;2023-01-26T07:04:04;100919.40;;;0.10;76.59
35307;BME280;21420;52.196;21.416;2023-01-26T07:06:31;100920.32;;;0.11;76.64
35307;BME280;21420;52.196;21.416;2023-01-26T07:08:58;100918.08;;;0.12;76.59
35307;BME280;21420;52.196;21.416;2023-01-26T07:11:24;100918.05;;;0.11;76.49
35307;BME280;21420;52.196;21.416;2023-01-26T07:13:51;100917.36;;;0.11;76.45
35307;BME280;21420;52.196;21.416;2023-01-26T07:16:18;100915.92;;;0.12;76.69
35307;BME280;21420;52.196;21.416;2023-01-26T07:18:45;100914.48;;;0.13;76.67
35307;BME280;21420;52.196;21.416;2023-01-26T07:21:17;100911.60;;;0.11;76.62
35307;BME280;21420;52.196;21.416;2023-01-26T07:23:45;100910.82;;;0.09;76.56
35307;BME280;21420;52.196;21.416;2023-01-26T07:26:12;100910.05;;;0.08;76.73
35307;BME280;21420;52.196;21.416;2023-01-26T07:28:40;100907.67;;;0.08;76.56
35307;BME280;21420;52.196;21.416;2023-01-26T07:31:08;100906.62;;;0.09;76.62
35307;BME280;21420;52.196;21.416;2023-01-26T07:33:36;100904.09;;;0.09;76.60
35307;BME280;21420;52.196;21.416;2023-01-26T07:36:03;100898.58;;;0.08;76.61
35307;BME280;21420;52.196;21.416;2023-01-26T07:38:32;100901.02;;;0.08;76.60
35307;BME280;21420;52.196;21.416;2023-01-26T07:41:04;100906.27;;;0.07;76.42
35307;BME280;21420;52.196;21.416;2023-01-26T07:43:32;100904.86;;;0.07;76.47
35307;BME280;21420;52.196;21.416;2023-01-26T07:46:00;100898.96;;;0.09;76.60
35307;BME280;21420;52.196;21.416;2023-01-26T07:48:27;100893.19;;;0.12;76.68
35307;BME280;21420;52.196;21.416;2023-01-26T07:51:00;100895.16;;;0.15;76.60
35307;BME280;21420;52.196;21.416;2023-01-26T07:53:28;100890.33;;;0.16;76.58
35307;BME280;21420;52.196;21.416;2023-01-26T07:56:10;100890.62;;;0.14;76.54
35307;BME280;21420;52.196;21.416;2023-01-26T07:58:38;100888.98;;;0.11;76.47
35307;BME280;21420;52.196;21.416;2023-01-26T08:01:13;100884.07;;;0.11;76.59
35307;BME280;21420;52.196;21.416;2023-01-26T08:03:41;100883.96;;;0.12;76.58
35307;BME280;21420;52.196;21.416;2023-01-26T08:06:11;100881.11;;;0.16;76.69
35307;BME280;21420;52.196;21.416;2023-01-26T08:08:41;100884.37;;;0.18;76.49
35307;BME280;21420;52.196;21.416;2023-01-26T08:11:09;100881.59;;;0.17;76.44
35307;BME280;21420;52.196;21.416;2023-01-26T08:13:37;100883.38;;;0.18;76.48
35307;BME280;21420;52.196;21.416;2023-01-26T08:16:06;100877.50;;;0.17;76.45
35307;BME280;21420;52.196;21.416;2023-01-26T08:18:42;100872.56;;;0.18;76.63
35307;BME280;21420;52.196;21.416;2023-01-26T08:21:11;100871.42;;;0.23;76.51
35307;BME280;21420;52.196;21.416;2023-01-26T08:23:39;100867.83;;;0.29;76.68
35307;BME280;21420;52.196;21.416;2023-01-26T08:26:11;100871.52;;;0.33;76.69
35307;BME280;21420;52.196;21.416;2023-01-26T08:28:39;100874.20;;;0.33;76.70
35307;BME280;21420;52.196;21.416;2023-01-26T08:31:14;100873.90;;;0.34;76.54
35307;BME280;21420;52.196;21.416;2023-01-26T08:33:44;100869.96;;;0.34;76.61
35307;BME280;21420;52.196;21.416;2023-01-26T08:36:13;100868.99;;;0.34;76.46
35307;BME280;21420;52.196;21.416;2023-01-26T08:38:41;100869.41;;;0.33;76.29
35307;BME280;21420;52.196;21.416;2023-01-26T08:41:08;100873.94;;;0.34;76.29
35307;BME280;21420;52.196;21.416;2023-01-26T08:43:35;100873.92;;;0.31;76.26
35307;BME280;21420;52.196;21.416;2023-01-26T08:46:03;100876.18;;;0.30;76.20
35307;BME280;21420;52.196;21.416;2023-01-26T08:48:30;100879.02;;;0.33;76.29
35307;BME280;21420;52.196;21.416;2023-01-26T08:50:59;100879.11;;;0.38;76.16
35307;BME280;21420;52.196;21.416;2023-01-26T08:53:29;100887.45;;;0.43;76.42
35307;BME280;21420;52.196;21.416;2023-01-26T08:56:00;100889.99;;;0.51;76.50
35307;BME280;21420;52.196;21.416;2023-01-26T08:58:27;100891.79;;;0.58;76.42
35307;BME280;21420;52.196;21.416;2023-01-26T09:00:55;100891.45;;;0.64;76.42
35307;BME280;21420;52.196;21.416;2023-01-26T09:03:22;100890.84;;;0.67;76.46
35307;BME280;21420;52.196;21.416;2023-01-26T09:05:49;100896.05;;;0.66;76.28
35307;BME280;21420;52.196;21.416;2023-01-26T09:08:16;100896.21;;;0.65;76.28
35307;BME280;21420;52.196;21.416;2023-01-26T09:10:43;100899.51;;;0.66;76.04
35307;BME280;21420;52.196;21.416;2023-01-26T09:13:13;100901.64;;;0.70;76.02
35307;BME280;21420;52.196;21.416;2023-01-26T09:15:40;100907.05;;;0.72;76.16
35307;BME280;21420;52.196;21.416;2023-01-26T09:18:08;100911.96;;;0.73;76.13
35307;BME280;21420;52.196;21.416;2023-01-26T09:20:39;100912.94;;;0.74;76.14
35307;BME280;21420;52.196;21.416;2023-01-26T09:23:06;100908.46;;;0.74;76.07
35307;BME280;21420;52.196;21.416;2023-01-26T09:25:37;100907.23;;;0.75;76.12
35307;BME280;21420;52.196;21.416;2023-01-26T09:28:05;100909.11;;;0.81;76.05
35307;BME280;21420;52.196;21.416;2023-01-26T09:30:32;100907.69;;;0.85;76.03
35307;BME280;21420;52.196;21.416;2023-01-26T09:33:01;100903.45;;;0.87;76.03
35307;BME280;21420;52.196;21.416;2023-01-26T09:35:29;100902.05;;;0.90;76.07
35307;BME280;21420;52.196;21.416;2023-01-26T09:37:56;100896.90;;;1.00;76.26
35307;BME280;21420;52.196;21.416;2023-01-26T09:43:28;100891.19;;;1.08;76.08
35307;BME280;21420;52.196;21.416;2023-01-26T09:45:58;100891.71;;;1.13;76.09
35307;BME280;21420;52.196;21.416;2023-01-26T09:51:11;100885.08;;;1.06;75.77
35307;BME280;21420;52.196;21.416;2023-01-26T09:56:46;100876.38;;;1.03;75.81
35307;BME280;21420;52.196;21.416;2023-01-26T10:05:21;100871.73;;;1.22;76.07
35307;BME280;21420;52.196;21.416;2023-01-26T10:07:51;100867.55;;;1.24;75.93
35307;BME280;21420;52.196;21.416;2023-01-26T10:10:24;100868.13;;;1.21;75.68
35307;BME280;21420;52.196;21.416;2023-01-26T10:12:52;100864.59;;;1.17;75.77
35307;BME280;21420;52.196;21.416;2023-01-26T10:15:35;100858.38;;;1.15;75.68
35307;BME280;21420;52.196;21.416;2023-01-26T10:18:21;100856.19;;;1.10;75.53
35307;BME280;21420;52.196;21.416;2023-01-26T10:20:52;100853.73;;;1.06;75.67
35307;BME280;21420;52.196;21.416;2023-01-26T10:23:31;100849.01;;;1.09;75.65
35307;BME280;21420;52.196;21.416;2023-01-26T10:26:12;100843.11;;;1.07;75.62
35307;BME280;21420;52.196;21.416;2023-01-26T10:28:41;100844.88;;;1.02;75.56
35307;BME280;21420;52.196;21.416;2023-01-26T10:31:24;100843.13;;;1.03;75.62
35307;BME280;21420;52.196;21.416;2023-01-26T10:36:30;100841.05;;;1.17;75.88
35307;BME280;21420;52.196;21.416;2023-01-26T10:39:04;100834.52;;;1.26;75.85
35307;BME280;21420;52.196;21.416;2023-01-26T10:41:32;100832.01;;;1.29;75.75
35307;BME280;21420;52.196;21.416;2023-01-26T10:44:22;100833.27;;;1.32;75.79
35307;BME280;21420;52.196;21.416;2023-01-26T10:47:14;100833.54;;;1.34;75.74
35307;BME280;21420;52.196;21.416;2023-01-26T10:49:43;100826.86;;;1.37;75.73
35307;BME280;21420;52.196;21.416;2023-01-26T10:52:27;100822.96;;;1.32;75.57
35307;BME280;21420;52.196;21.416;2023-01-26T10:55:31;100818.98;;;1.35;75.63
35307;BME280;21420;52.196;21.416;2023-01-26T10:57:59;100812.09;;;1.29;75.38
35307;BME280;21420;52.196;21.416;2023-01-26T11:00:29;100810.69;;;1.17;75.25
35307;BME280;21420;52.196;21.416;2023-01-26T11:05:39;100797.46;;;1.16;75.58
35307;BME280;21420;52.196;21.416;2023-01-26T11:08:30;100790.95;;;1.21;75.68
35307;BME280;21420;52.196;21.416;2023-01-26T11:11:01;100791.67;;;1.27;75.68
35307;BME280;21420;52.196;21.416;2023-01-26T11:13:38;100789.16;;;1.30;75.70
35307;BME280;21420;52.196;21.416;2023-01-26T11:21:36;100776.11;;;1.29;75.54
35307;BME280;21420;52.196;21.416;2023-01-26T11:27:16;100771.22;;;1.26;75.43
35307;BME280;21420;52.196;21.416;2023-01-26T11:40:31;100759.65;;;1.03;75.26
35307;BME280;21420;52.196;21.416;2023-01-26T11:48:47;100759.04;;;0.90;75.16
35307;BME280;21420;52.196;21.416;2023-01-26T11:59:33;100741.63;;;0.91;75.36
35307;BME280;21420;52.196;21.416;2023-01-26T12:02:23;100743.62;;;0.92;75.40
35307;BME280;21420;52.196;21.416;2023-01-26T12:04:55;100745.41;;;0.93;75.40
35307;BME280;21420;52.196;21.416;2023-01-26T12:10:27;100737.52;;;0.99;75.32
35307;BME280;21420;52.196;21.416;2023-01-26T12:15:53;100732.51;;;1.02;75.29
35307;BME280;21420;52.196;21.416;2023-01-26T12:18:26;100730.99;;;1.03;75.27
35307;BME280;21420;52.196;21.416;2023-01-26T12:21:16;100725.45;;;1.03;75.23
35307;BME280;21420;52.196;21.416;2023-01-26T12:23:55;100719.76;;;1.09;75.39
35307;BME280;21420;52.196;21.416;2023-01-26T12:26:25;100718.70;;;1.18;75.49
35307;BME280;21420;52.196;21.416;2023-01-26T12:33:55;100719.23;;;1.32;75.53
35307;BME280;21420;52.196;21.416;2023-01-26T12:42:07;100718.42;;;1.37;75.36
35307;BME280;21420;52.196;21.416;2023-01-26T12:44:41;100716.88;;;1.41;75.33
35307;BME280;21420;52.196;21.416;2023-01-26T12:52:50;100729.34;;;1.42;75.11
35307;BME280;21420;52.196;21.416;2023-01-26T12:55:33;100731.10;;;1.34;75.09
35307;BME280;21420;52.196;21.416;2023-01-26T12:58:03;100731.33;;;1.31;75.17
35307;BME280;21420;52.196;21.416;2023-01-26T13:00:36;100730.40;;;1.32;75.07
35307;BME280;21420;52.196;21.416;2023-01-26T13:03:14;100728.77;;;1.29;75.04
35307;BME280;21420;52.196;21.416;2023-01-26T13:11:07;100726.47;;;1.33;75.27
35307;BME280;21420;52.196;21.416;2023-01-26T13:29:54;100710.86;;;1.28;74.92
35307;BME280;21420;52.196;21.416;2023-01-26T13:34:55;100711.35;;;1.30;75.08
35307;BME280;21420;52.196;21.416;2023-01-26T13:37:43;100710.48;;;1.32;74.97
35307;BME280;21420;52.196;21.416;2023-01-26T13:40:20;100711.79;;;1.34;74.99
35307;BME280;21420;52.196;21.416;2023-01-26T13:51:08;100692.66;;;1.46;75.05
35307;BME280;21420;52.196;21.416;2023-01-26T13:53:39;100695.89;;;1.48;75.10
35307;BME280;21420;52.196;21.416;2023-01-26T13:56:23;100697.77;;;1.47;75.02
35307;BME280;21420;52.196;21.416;2023-01-26T13:58:51;100699.50;;;1.44;75.02
35307;BME280;21420;52.196;21.416;2023-01-26T14:01:19;100697.08;;;1.44;74.94
35307;BME280;21420;52.196;21.416;2023-01-26T14:03:47;100696.64;;;1.41;74.91
35307;BME280;21420;52.196;21.416;2023-01-26T14:06:18;100699.16;;;1.39;74.94
35307;BME280;21420;52.196;21.416;2023-01-26T14:08:52;100704.77;;;1.38;74.85
35307;BME280;21420;52.196;21.416;2023-01-26T14:11:25;100705.80;;;1.38;74.91
35307;BME280;21420;52.196;21.416;2023-01-26T14:13:56;100700.95;;;1.38;74.90
35307;BME280;21420;52.196;21.416;2023-01-26T14:16:35;100695.66;;;1.39;74.79
35307;BME280;21420;52.196;21.416;2023-01-26T14:19:14;100698.14;;;1.38;74.85
35307;BME280;21420;52.196;21.416;2023-01-26T14:21:51;100699.34;;;1.40;74.88
35307;BME280;21420;52.196;21.416;2023-01-26T14:24:33;100704.63;;;1.42;74.91
35307;BME280;21420;52.196;21.416;2023-01-26T14:27:01;100704.63;;;1.41;74.96
35307;BME280;21420;52.196;21.416;2023-01-26T14:29:29;100703.11;;;1.40;74.88
35307;BME280;21420;52.196;21.416;2023-01-26T14:31:58;100700.90;;;1.37;74.72
35307;BME280;21420;52.196;21.416;2023-01-26T14:34:27;100702.29;;;1.34;74.69
35307;BME280;21420;52.196;21.416;2023-01-26T14:37:13;100700.88;;;1.32;74.59
35307;BME280;21420;52.196;21.416;2023-01-26T14:39:42;100696.45;;;1.31;74.75
35307;BME280;21420;52.196;21.416;2023-01-26T14:42:12;100693.10;;;1.29;74.98
35307;BME280;21420;52.196;21.416;2023-01-26T14:44:40;100694.02;;;1.27;74.66
35307;BME280;21420;52.196;21.416;2023-01-26T14:47:30;100689.48;;;1.25;74.63
35307;BME280;21420;52.196;21.416;2023-01-26T14:52:31;100686.56;;;1.24;74.64
35307;BME280;21420;52.196;21.416;2023-01-26T14:55:30;100684.63;;;1.22;74.62
35307;BME280;21420;52.196;21.416;2023-01-26T14:58:02;100681.43;;;1.21;74.70
35307;BME280;21420;52.196;21.416;2023-01-26T15:00:31;100681.10;;;1.23;74.75
35307;BME280;21420;52.196;21.416;2023-01-26T15:06:18;100689.13;;;1.19;74.82
35307;BME280;21420;52.196;21.416;2023-01-26T15:08:56;100690.55;;;1.21;74.88
35307;BME280;21420;52.196;21.416;2023-01-26T15:11:38;100683.21;;;1.22;74.84
35307;BME280;21420;52.196;21.416;2023-01-26T15:16:55;100682.89;;;1.22;74.76
35307;BME280;21420;52.196;21.416;2023-01-26T15:19:29;100679.23;;;1.21;74.66
35307;BME280;21420;52.196;21.416;2023-01-26T15:21:59;100678.02;;;1.18;74.78
35307;BME280;21420;52.196;21.416;2023-01-26T15:24:29;100677.80;;;1.14;74.65
35307;BME280;21420;52.196;21.416;2023-01-26T15:27:09;100674.23;;;1.10;74.71